Aviation Digital Data Service (ADDS)

Output produced by METARs form (1933 UTC 25 September 2020)
found at http://www.aviationweather.gov/metar/data/
 
Forecast for: OJAI (QUEEN ALIA INTL , JO)
Text: TAF OJAI 251640Z 2518/2624 29010KT 6000 NSC
Forecast period: 1800 UTC 25 September 2020 to 0600 UTC 26 September 2020
Forecast type: FROM: standard forecast or significant change
Winds: from the WNW (290 degrees) at 12 MPH (10 knots; 5.1 m/s)
Visibility: 4 miles (6 km)
Ceiling: unknown
Clouds: missing
Weather: no significant weather forecast for this period
Text: PROB30
Forecast period: 0000 to 0500 UTC 26 September 2020
Forecast type: TEMPORARY: The following changes expected for less than half the time period
Visibility: 0.50 miles (0.80 km)
Ceiling: unknown
Clouds: missing
Weather: FG  (fog)
Text: TEMPO 2600/2605 0800 FG
Forecast period: 0600 UTC 26 September 2020 to 0000 UTC 27 September 2020
Forecast type: BECOMING: Conditions expected to become as follows by 1000 UTC 26 September 2020
Winds: from the WNW (290 degrees) at 12 MPH (10 knots; 5.1 m/s)
Visibility: 3 miles (5 km)
Ceiling: at least 12,000 feet AGL
Clouds: scattered clouds at 3000 feet AGL
Weather: HZ  (haze)